createdAt,value
2023-04-10T00:00:07.621Z,91.64
2023-04-10T00:01:07.638Z,92.36
2023-04-10T00:02:07.654Z,92.57
2023-04-10T00:03:07.945Z,92.57
2023-04-10T00:04:07.640Z,92.68
2023-04-10T00:05:07.629Z,92.74
2023-04-10T00:06:07.549Z,92.32
2023-04-10T00:07:07.539Z,92.22
2023-04-10T00:08:07.556Z,92.01
2023-04-10T00:09:07.526Z,92.01
2023-04-10T00:10:07.531Z,91.08
2023-04-10T00:11:07.497Z,91.85
2023-04-10T00:12:07.496Z,91.91
2023-04-10T00:13:07.525Z,92.11
2023-04-10T00:14:07.477Z,91.91
2023-04-10T00:15:07.473Z,92.11
2023-04-10T00:16:07.506Z,92.11
2023-04-10T00:17:07.431Z,91.91
2023-04-10T00:18:07.444Z,91.70
2023-04-10T00:19:07.423Z,92.01
2023-04-10T00:20:07.398Z,91.95
2023-04-10T00:21:07.408Z,91.60
2023-04-10T00:22:07.394Z,90.39
2023-04-10T00:23:07.401Z,91.60
2023-04-10T00:24:07.363Z,91.12
2023-04-10T00:25:07.381Z,91.02
2023-04-10T00:26:07.345Z,91.58
2023-04-10T00:27:07.319Z,91.68
2023-04-10T00:28:07.320Z,91.99
2023-04-10T00:29:07.335Z,91.93
2023-04-10T00:30:07.298Z,91.99
2023-04-10T00:31:07.301Z,91.93
2023-04-10T00:32:07.355Z,92.45
2023-04-10T00:33:07.345Z,92.55
2023-04-10T00:34:07.273Z,92.14
2023-04-10T00:35:07.250Z,91.72
2023-04-10T00:36:07.247Z,91.83
2023-04-10T00:37:07.272Z,92.76
2023-04-10T00:38:07.233Z,92.97
2023-04-10T00:39:07.209Z,92.76
2023-04-10T00:40:07.212Z,92.97
2023-04-10T00:41:07.195Z,92.55
2023-04-10T00:42:07.178Z,92.66
2023-04-10T00:43:07.170Z,92.45
2023-04-10T00:44:07.160Z,92.45
2023-04-10T00:45:07.175Z,92.35
2023-04-10T00:46:07.171Z,93.18
2023-04-10T00:47:07.110Z,93.38
2023-04-10T00:48:07.126Z,93.59
2023-04-10T00:49:07.114Z,93.28
2023-04-10T00:50:07.088Z,93.70
2023-04-10T00:51:07.070Z,92.76
2023-04-10T00:52:07.063Z,92.59
2023-04-10T00:53:07.047Z,92.59
2023-04-10T00:54:08.051Z,92.59
2023-04-10T00:55:07.051Z,92.80
2023-04-10T00:56:07.031Z,92.59
2023-04-10T00:57:07.092Z,92.80
2023-04-10T00:58:07.013Z,92.80
2023-04-10T00:59:07.374Z,93.26
2023-04-10T01:00:07.990Z,93.99
2023-04-10T01:01:07.015Z,94.05
2023-04-10T01:02:07.017Z,93.84
2023-04-10T01:03:07.039Z,93.99
2023-04-10T01:04:07.086Z,93.37
2023-04-10T01:05:06.944Z,94.09
2023-04-10T01:06:06.934Z,94.05
2023-04-10T01:07:06.908Z,94.46
2023-04-10T01:08:06.915Z,94.57
2023-04-10T01:09:06.916Z,94.57
2023-04-10T01:10:06.895Z,94.20
2023-04-10T01:11:06.856Z,94.46
2023-04-10T01:12:06.864Z,94.30
2023-04-10T01:13:06.858Z,94.09
2023-04-10T01:14:06.838Z,94.09
2023-04-10T01:15:06.848Z,94.40
2023-04-10T01:16:06.807Z,94.57
2023-04-10T01:17:06.929Z,94.78
2023-04-10T01:18:06.870Z,94.51
2023-04-10T01:19:06.798Z,94.71
2023-04-10T01:20:06.774Z,94.20
2023-04-10T01:21:06.777Z,94.20
2023-04-10T01:22:06.757Z,94.30
2023-04-10T01:23:06.758Z,94.09
2023-04-10T01:24:06.735Z,93.93
2023-04-10T01:25:06.743Z,93.93
2023-04-10T01:26:06.704Z,94.34
2023-04-10T01:27:06.702Z,94.34
2023-04-10T01:28:06.705Z,94.65
2023-04-10T01:29:06.679Z,94.65
2023-04-10T01:30:06.704Z,94.65
2023-04-10T01:31:06.780Z,94.96
2023-04-10T01:32:06.644Z,94.13
2023-04-10T01:33:06.766Z,94.34
2023-04-10T01:34:06.660Z,94.38
2023-04-10T01:35:06.638Z,94.38
2023-04-10T01:36:06.659Z,94.13
2023-04-10T01:37:06.602Z,93.76
2023-04-10T01:38:06.601Z,93.35
2023-04-10T01:39:06.602Z,93.66
2023-04-10T01:40:06.573Z,93.24
2023-04-10T01:41:06.569Z,93.14
2023-04-10T01:42:06.547Z,93.55
2023-04-10T01:43:06.543Z,93.70
2023-04-10T01:44:06.575Z,93.60
2023-04-10T01:45:06.528Z,93.18
2023-04-10T01:46:06.549Z,92.97
2023-04-10T01:47:06.498Z,92.91
2023-04-10T01:48:06.522Z,92.60
2023-04-10T01:49:06.489Z,93.33
2023-04-10T01:50:06.472Z,92.60
2023-04-10T01:51:06.495Z,93.58
2023-04-10T01:52:06.453Z,93.85
2023-04-10T01:53:06.427Z,93.64
2023-04-10T01:54:07.437Z,93.58
2023-04-10T01:55:06.424Z,94.20
2023-04-10T01:56:06.398Z,94.93
2023-04-10T01:57:06.411Z,94.62
2023-04-10T01:58:06.397Z,94.93
2023-04-10T01:59:06.388Z,95.03
2023-04-10T02:00:06.366Z,94.93
2023-04-10T02:01:06.533Z,95.25
2023-04-10T02:02:06.415Z,95.03
2023-04-10T02:03:06.522Z,94.93
2023-04-10T02:04:06.425Z,95.25
2023-04-10T02:05:06.397Z,94.87
2023-04-10T02:06:06.299Z,94.45
2023-04-10T02:07:06.300Z,95.29
2023-04-10T02:08:06.296Z,94.98
2023-04-10T02:09:06.283Z,95.81
2023-04-10T02:10:06.278Z,95.18
2023-04-10T02:11:06.261Z,95.50
2023-04-10T02:12:06.242Z,94.98
2023-04-10T02:13:06.247Z,94.92
2023-04-10T02:14:06.235Z,95.43
2023-04-10T02:15:06.217Z,95.64
2023-04-10T02:16:06.206Z,95.54
2023-04-10T02:17:06.180Z,95.75
2023-04-10T02:18:06.193Z,95.43
2023-04-10T02:19:06.183Z,96.37
2023-04-10T02:20:06.188Z,96.33
2023-04-10T02:21:06.170Z,96.64
2023-04-10T02:22:06.130Z,96.22
2023-04-10T02:23:06.123Z,95.91
2023-04-10T02:24:06.119Z,96.33
2023-04-10T02:25:06.134Z,95.50
2023-04-10T02:26:06.108Z,96.08
2023-04-10T02:27:06.077Z,97.12
2023-04-10T02:28:06.075Z,96.70
2023-04-10T02:29:07.070Z,97.22
2023-04-10T02:30:06.071Z,97.17
2023-04-10T02:31:06.070Z,97.59
2023-04-10T02:32:06.040Z,97.07
2023-04-10T02:33:06.061Z,97.07
2023-04-10T02:34:06.029Z,96.97
2023-04-10T02:35:06.019Z,96.76
2023-04-10T02:36:06.055Z,97.28
2023-04-10T02:37:05.984Z,97.17
2023-04-10T02:38:05.988Z,96.49
2023-04-10T02:39:05.964Z,97.22
2023-04-10T02:40:05.962Z,97.07
2023-04-10T02:41:05.934Z,96.91
2023-04-10T02:42:05.941Z,96.70
2023-04-10T02:43:05.915Z,96.55
2023-04-10T02:44:05.940Z,96.76
2023-04-10T02:45:05.910Z,97.28
2023-04-10T02:46:05.901Z,97.59
2023-04-10T02:47:05.913Z,97.07
2023-04-10T02:48:05.882Z,97.38
2023-04-10T02:49:05.865Z,97.96
2023-04-10T02:50:05.846Z,97.75
2023-04-10T02:51:05.869Z,97.07
2023-04-10T02:52:05.821Z,97.86
2023-04-10T02:53:05.811Z,96.82
2023-04-10T02:54:05.820Z,97.24
2023-04-10T02:55:05.809Z,97.24
2023-04-10T02:56:05.808Z,96.30
2023-04-10T02:57:05.765Z,96.03
2023-04-10T02:58:05.760Z,95.51
2023-04-10T02:59:05.762Z,95.51
2023-04-10T03:00:05.759Z,94.93
2023-04-10T03:01:05.749Z,93.89
2023-04-10T03:02:05.786Z,95.14
2023-04-10T03:03:05.924Z,94.82
2023-04-10T03:04:06.762Z,94.45
2023-04-10T03:05:05.701Z,94.29
2023-04-10T03:06:07.869Z,94.70
2023-04-10T03:07:06.663Z,94.33
2023-04-10T03:08:05.656Z,95.27
2023-04-10T03:09:05.646Z,95.68
2023-04-10T03:10:05.629Z,95.12
2023-04-10T03:11:05.650Z,95.12
2023-04-10T03:12:05.631Z,95.85
2023-04-10T03:13:05.606Z,95.12
2023-04-10T03:14:05.589Z,95.64
2023-04-10T03:15:05.590Z,96.33
2023-04-10T03:16:05.655Z,97.43
2023-04-10T03:17:05.566Z,96.91
2023-04-10T03:18:05.608Z,97.12
2023-04-10T03:19:05.552Z,95.81
2023-04-10T03:20:05.526Z,97.37
2023-04-10T03:21:05.538Z,97.16
2023-04-10T03:22:05.519Z,96.80
2023-04-10T03:23:05.494Z,96.80
2023-04-10T03:24:05.515Z,97.33
2023-04-10T03:25:05.480Z,96.91
2023-04-10T03:26:05.481Z,97.07
2023-04-10T03:27:05.458Z,96.70
2023-04-10T03:28:05.470Z,96.34
2023-04-10T03:29:05.436Z,96.76
2023-04-10T03:30:05.429Z,97.28
2023-04-10T03:31:05.431Z,96.45
2023-04-10T03:32:05.452Z,97.01
2023-04-10T03:33:05.442Z,97.12
2023-04-10T03:34:05.425Z,97.07
2023-04-10T03:35:05.368Z,97.43
2023-04-10T03:36:05.406Z,96.53
2023-04-10T03:37:05.365Z,96.49
2023-04-10T03:38:05.335Z,96.22
2023-04-10T03:39:05.343Z,96.64
2023-04-10T03:40:05.329Z,95.97
2023-04-10T03:41:05.307Z,95.91
2023-04-10T03:42:05.357Z,96.12
2023-04-10T03:43:05.281Z,97.00
2023-04-10T03:44:37.198Z,97.41
2023-04-10T03:45:05.277Z,96.89
2023-04-10T03:46:05.284Z,97.41
2023-04-10T03:47:05.284Z,96.89
2023-04-10T03:48:05.293Z,96.89
2023-04-10T03:49:05.254Z,96.85
2023-04-10T03:50:05.218Z,96.85
2023-04-10T03:51:05.194Z,96.79
2023-04-10T03:52:05.202Z,97.20
2023-04-10T03:53:05.203Z,96.89
2023-04-10T03:54:05.189Z,97.00
2023-04-10T03:55:05.184Z,97.20
2023-04-10T03:56:05.167Z,96.89
2023-04-10T03:57:05.136Z,96.48
2023-04-10T03:58:05.139Z,97.00
2023-04-10T03:59:05.153Z,97.25
2023-04-10T04:00:05.128Z,97.25
2023-04-10T04:01:05.076Z,97.00
2023-04-10T04:02:05.144Z,96.89
2023-04-10T04:03:05.295Z,96.83
2023-04-10T04:04:05.144Z,97.46
2023-04-10T04:05:05.201Z,96.83
2023-04-10T04:06:05.048Z,96.36
2023-04-10T04:07:05.060Z,97.46
2023-04-10T04:08:05.020Z,96.98
2023-04-10T04:09:05.001Z,96.56
2023-04-10T04:10:05.015Z,96.04
2023-04-10T04:11:04.971Z,97.61
2023-04-10T04:12:04.985Z,96.62
2023-04-10T04:13:04.985Z,96.88
2023-04-10T04:14:04.965Z,97.25
2023-04-10T04:15:04.927Z,97.56
2023-04-10T04:16:04.930Z,98.19
2023-04-10T04:17:05.142Z,97.88
2023-04-10T04:18:04.948Z,97.35
2023-04-10T04:19:04.923Z,97.92
2023-04-10T04:20:04.894Z,97.25
2023-04-10T04:21:04.865Z,97.50
2023-04-10T04:22:04.878Z,98.23
2023-04-10T04:23:04.871Z,98.02
2023-04-10T04:24:04.890Z,98.13
2023-04-10T04:25:04.846Z,98.19
2023-04-10T04:26:04.840Z,98.44
2023-04-10T04:27:04.818Z,97.98
2023-04-10T04:28:04.823Z,98.39
2023-04-10T04:29:04.826Z,98.60
2023-04-10T04:30:04.799Z,97.61
2023-04-10T04:31:04.763Z,98.19
2023-04-10T04:32:04.829Z,99.33
2023-04-10T04:33:04.823Z,98.50
2023-04-10T04:34:04.741Z,98.92
2023-04-10T04:35:04.729Z,98.82
2023-04-10T04:36:04.889Z,98.97
2023-04-10T04:37:04.721Z,98.97
2023-04-10T04:38:04.697Z,98.77
2023-04-10T04:39:04.668Z,98.77
2023-04-10T04:40:04.661Z,99.40
2023-04-10T04:41:04.686Z,99.40
2023-04-10T04:42:04.638Z,99.24
2023-04-10T04:43:04.682Z,99.24
2023-04-10T04:44:04.635Z,99.35
2023-04-10T04:45:04.622Z,99.50
2023-04-10T04:46:04.680Z,99.24
2023-04-10T04:47:04.625Z,99.55
2023-04-10T04:48:04.705Z,99.29
2023-04-10T04:49:04.560Z,99.55
2023-04-10T04:50:04.588Z,98.62
2023-04-10T04:51:05.538Z,98.83
2023-04-10T04:52:04.557Z,99.29
2023-04-10T04:53:06.655Z,98.97
2023-04-10T04:54:04.529Z,98.72
2023-04-10T04:55:04.518Z,98.83
2023-04-10T04:56:04.538Z,98.93
2023-04-10T04:57:04.538Z,98.93
2023-04-10T04:58:04.477Z,98.72
2023-04-10T04:59:04.485Z,98.72
2023-04-10T05:00:04.463Z,98.72
2023-04-10T05:01:04.488Z,99.04
2023-04-10T05:02:04.540Z,98.83
2023-04-10T05:03:04.568Z,98.52
2023-04-10T05:04:04.687Z,98.26
2023-04-10T05:05:04.394Z,98.47
2023-04-10T05:06:04.411Z,97.74
2023-04-10T05:07:04.394Z,97.95
2023-04-10T05:08:04.380Z,97.43
2023-04-10T05:09:04.353Z,97.43
2023-04-10T05:10:04.360Z,97.01
2023-04-10T05:11:04.411Z,97.07
2023-04-10T05:12:04.350Z,96.86
2023-04-10T05:13:04.309Z,96.49
2023-04-10T05:14:04.321Z,96.45
2023-04-10T05:15:04.282Z,95.87
2023-04-10T05:16:04.349Z,96.66
2023-04-10T05:17:04.299Z,96.66
2023-04-10T05:18:04.321Z,96.76
2023-04-10T05:19:04.238Z,97.34
2023-04-10T05:20:04.260Z,97.34
2023-04-10T05:21:04.250Z,96.20
2023-04-10T05:22:04.229Z,96.51
2023-04-10T05:23:04.247Z,96.03
2023-04-10T05:24:04.212Z,96.51
2023-04-10T05:25:04.185Z,95.78
2023-04-10T05:26:04.178Z,95.36
2023-04-10T05:27:04.250Z,95.30
2023-04-10T05:28:04.180Z,95.30
2023-04-10T05:29:04.135Z,95.36
2023-04-10T05:30:04.177Z,95.67
2023-04-10T05:31:04.133Z,95.67
2023-04-10T05:32:04.123Z,95.20
2023-04-10T05:33:05.137Z,95.26
2023-04-10T05:34:04.102Z,95.57
2023-04-10T05:35:04.085Z,95.89
2023-04-10T05:36:04.107Z,95.26
2023-04-10T05:37:04.100Z,95.36
2023-04-10T05:38:04.032Z,95.26
2023-04-10T05:39:04.085Z,96.51
2023-04-10T05:40:04.057Z,95.73
2023-04-10T05:41:04.027Z,96.11
2023-04-10T05:42:04.010Z,95.69
2023-04-10T05:43:04.033Z,95.07
2023-04-10T05:44:04.003Z,95.59
2023-04-10T05:45:03.986Z,95.48
2023-04-10T05:46:04.031Z,95.59
2023-04-10T05:47:04.988Z,95.59
2023-04-10T05:48:04.004Z,95.07
2023-04-10T05:49:03.993Z,95.07
2023-04-10T05:50:03.955Z,95.34
2023-04-10T05:51:03.907Z,95.44
2023-04-10T05:52:03.919Z,95.19
2023-04-10T05:53:03.925Z,95.19
2023-04-10T05:54:03.886Z,94.94
2023-04-10T05:55:03.901Z,94.94
2023-04-10T05:56:03.896Z,94.53
2023-04-10T05:57:03.852Z,94.53
2023-04-10T05:58:03.851Z,95.04
2023-04-10T05:59:03.878Z,95.00
2023-04-10T06:00:03.841Z,94.43
2023-04-10T06:01:03.940Z,93.75
2023-04-10T06:02:03.921Z,94.02
2023-04-10T06:03:03.845Z,93.91
2023-04-10T06:04:03.988Z,92.63
2023-04-10T06:05:03.816Z,92.22
2023-04-10T06:06:03.771Z,91.24
2023-04-10T06:07:03.756Z,90.20
2023-04-10T06:08:03.771Z,91.03
2023-04-10T06:09:03.763Z,89.44
2023-04-10T06:10:03.735Z,90.37
2023-04-10T06:11:03.741Z,90.47
2023-04-10T06:12:03.741Z,91.30
2023-04-10T06:13:03.725Z,91.78
2023-04-10T06:14:03.696Z,91.78
2023-04-10T06:15:03.682Z,91.36
2023-04-10T06:16:03.692Z,90.84
2023-04-10T06:17:03.683Z,91.05
2023-04-10T06:18:03.671Z,91.53
2023-04-10T06:19:03.659Z,91.22
2023-04-10T06:20:03.636Z,90.25
2023-04-10T06:21:04.639Z,89.52
2023-04-10T06:22:03.613Z,88.59
2023-04-10T06:23:03.627Z,88.76
2023-04-10T06:24:03.629Z,88.76
2023-04-10T06:25:03.561Z,89.28
2023-04-10T06:26:03.586Z,88.76
2023-04-10T06:27:03.554Z,88.55
2023-04-10T06:28:03.559Z,87.48
2023-04-10T06:29:03.550Z,87.68
2023-04-10T06:30:03.548Z,87.62
2023-04-10T06:31:03.621Z,87.79
2023-04-10T06:32:03.510Z,87.79
2023-04-10T06:33:03.553Z,86.61
2023-04-10T06:34:03.683Z,85.78
2023-04-10T06:35:03.527Z,85.64
2023-04-10T06:36:03.499Z,85.13
2023-04-10T06:37:03.457Z,83.89
2023-04-10T06:38:03.448Z,83.64
2023-04-10T06:39:03.470Z,84.06
2023-04-10T06:40:03.439Z,83.75
2023-04-10T06:41:03.417Z,83.91
2023-04-10T06:42:03.416Z,83.40
2023-04-10T06:43:03.412Z,83.05
2023-04-10T06:44:03.744Z,83.26
2023-04-10T06:45:04.376Z,83.36
2023-04-10T06:46:03.385Z,83.15
2023-04-10T06:47:03.636Z,81.88
2023-04-10T06:48:03.428Z,81.37
2023-04-10T06:49:03.324Z,81.23
2023-04-10T06:50:03.346Z,80.71
2023-04-10T06:51:03.337Z,79.23
2023-04-10T06:52:03.315Z,79.13
2023-04-10T06:53:03.305Z,78.20
2023-04-10T06:54:03.299Z,78.47
2023-04-10T06:55:04.262Z,77.82
2023-04-10T06:56:03.898Z,78.03
2023-04-10T06:57:04.275Z,78.85
2023-04-10T06:58:03.240Z,77.48
2023-04-10T06:59:03.263Z,76.45
2023-04-10T07:00:03.251Z,76.82
2023-04-10T07:01:03.213Z,77.34
2023-04-10T07:02:03.229Z,75.66
2023-04-10T07:03:03.289Z,75.04
2023-04-10T07:04:03.246Z,74.70
2023-04-10T07:05:03.162Z,75.11
2023-04-10T07:06:03.285Z,73.85
2023-04-10T07:07:03.135Z,73.44
2023-04-10T07:08:03.119Z,73.81
2023-04-10T07:09:04.146Z,73.61
2023-04-10T07:10:03.118Z,73.30
2023-04-10T07:11:03.094Z,72.58
2023-04-10T07:12:03.083Z,72.96
2023-04-10T07:13:03.112Z,72.14
2023-04-10T07:14:03.076Z,72.86
2023-04-10T07:15:03.053Z,72.24
2023-04-10T07:16:03.058Z,72.14
2023-04-10T07:17:03.081Z,72.34
2023-04-10T07:18:03.087Z,72.55
2023-04-10T07:19:03.016Z,72.31
2023-04-10T07:20:03.001Z,71.69
2023-04-10T07:21:03.032Z,71.28
2023-04-10T07:22:02.969Z,70.98
2023-04-10T07:23:03.004Z,71.18
2023-04-10T07:24:02.950Z,70.47
2023-04-10T07:25:02.963Z,71.22
2023-04-10T07:26:02.957Z,70.87
2023-04-10T07:27:02.923Z,71.28
2023-04-10T07:28:02.910Z,71.08
2023-04-10T07:29:02.884Z,70.77
2023-04-10T07:30:02.902Z,71.18
2023-04-10T07:31:02.861Z,71.22
2023-04-10T07:32:02.910Z,72.24
2023-04-10T07:33:03.143Z,72.86
2023-04-10T07:34:02.880Z,72.78
2023-04-10T07:35:02.798Z,72.34
2023-04-10T07:36:02.849Z,72.34
2023-04-10T07:37:03.830Z,72.55
2023-04-10T07:38:02.778Z,72.52
2023-04-10T07:39:02.795Z,71.59
2023-04-10T07:40:02.839Z,71.77
2023-04-10T07:41:02.734Z,72.07
2023-04-10T07:42:02.747Z,71.66
2023-04-10T07:43:02.743Z,71.04
2023-04-10T07:44:02.732Z,71.15
2023-04-10T07:45:02.693Z,70.91
2023-04-10T07:46:02.750Z,71.12
2023-04-10T07:47:02.720Z,71.01
2023-04-10T07:48:02.736Z,70.29
2023-04-10T07:49:02.653Z,70.47
2023-04-10T07:50:02.682Z,70.67
2023-04-10T07:51:02.677Z,70.50
2023-04-10T07:52:02.625Z,69.96
2023-04-10T07:53:02.642Z,70.47
2023-04-10T07:54:02.645Z,70.37
2023-04-10T07:55:02.589Z,70.26
2023-04-10T07:56:02.597Z,69.45
2023-04-10T07:57:02.596Z,70.37
2023-04-10T07:58:02.567Z,69.24
2023-04-10T07:59:02.533Z,70.37
2023-04-10T08:00:02.570Z,70.57
2023-04-10T08:01:02.541Z,70.43
2023-04-10T08:02:02.541Z,69.62
2023-04-10T08:03:02.723Z,69.42
2023-04-10T08:04:05.291Z,69.38
2023-04-10T08:05:03.637Z,69.72
2023-04-10T08:06:02.586Z,69.21
2023-04-10T08:07:02.475Z,68.97
2023-04-10T08:08:02.469Z,68.66
2023-04-10T08:09:02.430Z,68.36
2023-04-10T08:10:03.467Z,67.10
2023-04-10T08:11:02.409Z,67.48
2023-04-10T08:12:02.420Z,67.10
2023-04-10T08:13:02.409Z,67.38
2023-04-10T08:14:02.420Z,67.68
2023-04-10T08:15:02.356Z,67.65
2023-04-10T08:16:02.377Z,66.97
2023-04-10T08:17:02.519Z,67.68
2023-04-10T08:18:02.367Z,67.27
2023-04-10T08:19:02.311Z,67.18
2023-04-10T08:20:02.332Z,67.35
2023-04-10T08:21:02.337Z,67.24
2023-04-10T08:22:02.290Z,67.35
2023-04-10T08:23:13.015Z,67.45
2023-04-10T08:24:04.279Z,67.45
2023-04-10T08:25:02.260Z,66.83
2023-04-10T08:26:02.334Z,65.48
2023-04-10T08:27:02.254Z,65.99
2023-04-10T08:28:02.265Z,65.34
2023-04-10T08:29:02.193Z,65.25
2023-04-10T08:30:02.435Z,65.52
2023-04-10T08:31:02.248Z,65.01
2023-04-10T08:32:03.182Z,64.67
2023-04-10T08:33:02.164Z,64.67
2023-04-10T08:34:02.159Z,64.70
2023-04-10T08:35:02.213Z,65.08
2023-04-10T08:36:02.190Z,64.26
2023-04-10T08:37:02.142Z,64.26
2023-04-10T08:38:13.681Z,63.42
2023-04-10T08:39:04.075Z,62.81
2023-04-10T08:40:02.228Z,63.22
2023-04-10T08:41:02.103Z,63.04
2023-04-10T08:42:02.095Z,64.98
2023-04-10T08:43:02.152Z,64.64
2023-04-10T08:44:02.162Z,63.32
2023-04-10T08:45:02.054Z,63.93
2023-04-10T08:46:02.047Z,62.81
2023-04-10T08:47:02.031Z,63.22
2023-04-10T08:48:02.007Z,63.32
2023-04-10T08:49:01.964Z,63.19
2023-04-10T08:50:01.959Z,62.07
2023-04-10T08:51:02.026Z,62.48
2023-04-10T08:52:01.960Z,61.83
2023-04-10T08:53:01.928Z,61.46
2023-04-10T08:54:01.916Z,61.93
2023-04-10T08:55:01.959Z,61.93
2023-04-10T08:56:01.901Z,62.71
2023-04-10T08:57:01.885Z,61.87
2023-04-10T08:58:02.178Z,62.35
2023-04-10T08:59:01.851Z,61.74
2023-04-10T09:00:06.780Z,61.43
2023-04-10T09:01:03.869Z,61.40
2023-04-10T09:02:01.949Z,62.01
2023-04-10T09:03:02.000Z,60.31
2023-04-10T09:04:02.067Z,61.99
2023-04-10T09:05:01.813Z,63.07
2023-04-10T09:06:01.770Z,64.06
2023-04-10T09:07:01.805Z,65.28
2023-04-10T09:08:01.824Z,65.31
2023-04-10T09:10:02.747Z,64.78
2023-04-10T09:11:01.750Z,63.01
2023-04-10T09:12:01.922Z,63.53
2023-04-10T09:13:01.691Z,64.23
2023-04-10T09:14:01.732Z,64.57
2023-04-10T09:15:01.718Z,65.08
2023-04-10T09:16:01.767Z,64.23
2023-04-10T09:17:01.699Z,62.78
2023-04-10T09:18:01.784Z,62.45
2023-04-10T09:19:01.700Z,62.32
2023-04-10T09:20:01.660Z,61.78
2023-04-10T09:21:01.637Z,58.02
2023-04-10T09:22:01.618Z,57.79
2023-04-10T09:23:01.621Z,58.29
2023-04-10T09:24:02.592Z,57.48
2023-04-10T09:25:01.622Z,58.06
2023-04-10T09:26:01.576Z,57.97
2023-04-10T09:27:01.571Z,56.62
2023-04-10T09:28:01.542Z,55.47
2023-04-10T09:29:01.561Z,54.53
2023-04-10T09:30:01.545Z,55.02
2023-04-10T09:31:01.578Z,55.63
2023-04-10T09:32:01.532Z,53.70
2023-04-10T09:33:02.149Z,53.70
2023-04-10T09:34:01.481Z,53.91
2023-04-10T09:35:01.498Z,53.50
2023-04-10T09:36:01.560Z,54.31
2023-04-10T09:37:01.467Z,53.91
2023-04-10T09:38:01.463Z,54.00
2023-04-10T09:39:01.455Z,53.58
2023-04-10T09:40:01.431Z,53.96
2023-04-10T09:41:01.447Z,53.52
2023-04-10T09:42:01.404Z,51.81
2023-04-10T09:43:01.418Z,51.28
2023-04-10T09:44:01.384Z,50.99
2023-04-10T09:45:01.407Z,50.77
2023-04-10T09:46:01.351Z,51.17
2023-04-10T09:47:01.433Z,50.24
2023-04-10T09:48:01.369Z,50.49
2023-04-10T09:49:01.309Z,50.16
2023-04-10T09:50:01.312Z,50.29
2023-04-10T09:51:01.342Z,50.09
2023-04-10T09:52:01.335Z,49.88
2023-04-10T09:53:01.269Z,49.68
2023-04-10T09:54:01.270Z,49.22
2023-04-10T09:55:01.242Z,49.62
2023-04-10T09:56:01.262Z,49.42
2023-04-10T09:57:01.270Z,50.11
2023-04-10T09:58:01.250Z,49.90
2023-04-10T09:59:01.224Z,49.60
2023-04-10T10:00:01.214Z,50.01
2023-04-10T10:01:01.223Z,49.70
2023-04-10T10:02:01.395Z,50.61
2023-04-10T10:03:01.402Z,50.01
2023-04-10T10:04:01.187Z,49.78
2023-04-10T10:05:01.221Z,49.98
2023-04-10T10:06:02.149Z,49.86
2023-04-10T10:07:01.182Z,49.76
2023-04-10T10:08:01.133Z,48.82
2023-04-10T10:09:01.165Z,48.74
2023-04-10T10:10:02.147Z,47.94
2023-04-10T10:11:01.079Z,47.94
2023-04-10T10:12:01.104Z,47.71
2023-04-10T10:13:01.118Z,49.13
2023-04-10T10:14:01.070Z,47.53
2023-04-10T10:15:01.044Z,48.14
2023-04-10T10:16:01.088Z,48.14
2023-04-10T10:17:01.053Z,48.85
2023-04-10T10:18:01.025Z,49.02
2023-04-10T10:19:01.034Z,49.76
2023-04-10T10:20:01.043Z,48.03
2023-04-10T10:21:00.987Z,48.14
2023-04-10T10:22:01.031Z,49.15
2023-04-10T10:23:01.011Z,47.20
2023-04-10T10:24:00.967Z,47.11
2023-04-10T10:25:00.975Z,46.91
2023-04-10T10:26:02.396Z,47.36
2023-04-10T10:27:00.957Z,45.67
2023-04-10T10:28:00.937Z,46.76
2023-04-10T10:29:00.892Z,45.85
2023-04-10T10:30:02.882Z,46.25
2023-04-10T10:31:01.929Z,46.33
2023-04-10T10:32:00.900Z,46.33
2023-04-10T10:33:00.976Z,47.06
2023-04-10T10:34:00.884Z,47.34
2023-04-10T10:35:00.827Z,46.84
2023-04-10T10:36:00.856Z,47.99
2023-04-10T10:37:00.839Z,47.67
2023-04-10T10:38:00.825Z,47.95
2023-04-10T10:39:00.783Z,46.71
2023-04-10T10:40:00.826Z,45.30
2023-04-10T10:41:00.812Z,45.70
2023-04-10T10:42:00.754Z,45.62
2023-04-10T10:43:00.785Z,45.93
2023-04-10T10:44:00.769Z,45.73
2023-04-10T10:45:00.721Z,45.90
2023-04-10T10:46:00.761Z,45.78
2023-04-10T10:47:00.729Z,45.06
2023-04-10T10:48:00.755Z,44.55
2023-04-10T10:49:00.719Z,45.76
2023-04-10T10:50:00.725Z,45.03
2023-04-10T10:51:00.721Z,43.54
2023-04-10T10:52:00.661Z,43.65
2023-04-10T10:53:00.660Z,44.02
2023-04-10T10:54:00.638Z,44.43
2023-04-10T10:55:00.637Z,43.20
2023-04-10T10:56:00.612Z,43.22
2023-04-10T10:57:00.638Z,43.20
2023-04-10T10:58:00.600Z,44.45
2023-04-10T10:59:00.578Z,44.35
2023-04-10T11:00:00.566Z,44.95
2023-04-10T11:01:00.601Z,43.26
2023-04-10T11:02:00.646Z,44.67
2023-04-10T11:03:00.684Z,43.24
2023-04-10T11:04:00.740Z,43.34
2023-04-10T11:05:00.536Z,44.75
2023-04-10T11:06:00.485Z,45.46
2023-04-10T11:07:00.532Z,44.93
2023-04-10T11:08:00.480Z,43.42
2023-04-10T11:09:00.477Z,43.40
2023-04-10T11:10:00.480Z,43.80
2023-04-10T11:11:00.464Z,42.70
2023-04-10T11:12:00.437Z,43.10
2023-04-10T11:13:00.441Z,42.70
2023-04-10T11:14:00.426Z,42.90
2023-04-10T11:15:00.405Z,43.18
2023-04-10T11:16:00.415Z,42.47
2023-04-10T11:17:00.493Z,41.85
2023-04-10T11:18:00.440Z,42.66
2023-04-10T11:19:13.087Z,41.73
2023-04-10T11:20:02.358Z,41.93
2023-04-10T11:21:00.353Z,41.61
2023-04-10T11:22:00.318Z,41.29
2023-04-10T11:23:00.340Z,41.71
2023-04-10T11:24:00.311Z,41.39
2023-04-10T11:25:00.429Z,41.67
2023-04-10T11:26:00.278Z,40.87
2023-04-10T11:27:00.290Z,41.27
2023-04-10T11:28:00.275Z,41.09
2023-04-10T11:29:00.242Z,40.91
2023-04-10T11:30:00.250Z,40.81
2023-04-10T11:31:00.243Z,40.79
2023-04-10T11:32:00.261Z,39.88
2023-04-10T11:33:00.236Z,39.90
2023-04-10T11:34:00.192Z,40.41
2023-04-10T11:35:00.460Z,39.80
2023-04-10T11:36:00.232Z,39.70
2023-04-10T11:37:00.150Z,39.88
2023-04-10T11:38:00.184Z,39.20
2023-04-10T11:39:00.122Z,40.08
2023-04-10T11:40:00.152Z,39.36
2023-04-10T11:41:00.153Z,39.56
2023-04-10T11:42:00.131Z,39.76
2023-04-10T11:43:00.109Z,39.78
2023-04-10T11:44:00.156Z,39.08
2023-04-10T11:45:00.103Z,39.30
2023-04-10T11:46:00.107Z,39.38
2023-04-10T11:47:00.103Z,39.26
2023-04-10T11:48:00.114Z,38.26
2023-04-10T11:49:00.021Z,38.64
2023-04-10T11:50:00.046Z,37.42
2023-04-10T11:51:00.076Z,37.10
2023-04-10T11:52:00.024Z,36.88
2023-04-10T11:52:59.966Z,36.61
2023-04-10T11:54:00.009Z,37.34
2023-04-10T11:54:59.951Z,36.54
2023-04-10T11:55:59.952Z,37.42
2023-04-10T11:56:59.970Z,36.92
2023-04-10T11:57:59.953Z,36.90
2023-04-10T11:58:59.906Z,36.88
2023-04-10T11:59:59.902Z,36.88
2023-04-10T12:00:59.948Z,36.88
2023-04-10T12:01:59.969Z,39.56
2023-04-10T12:03:00.062Z,38.88
2023-04-10T12:04:00.046Z,39.28
2023-04-10T12:04:59.899Z,38.46
2023-04-10T12:05:59.850Z,38.24
2023-04-10T12:06:59.874Z,38.24
2023-04-10T12:07:59.830Z,38.82
2023-04-10T12:08:59.807Z,36.70
2023-04-10T12:09:59.836Z,36.68
2023-04-10T12:10:59.795Z,36.70
2023-04-10T12:11:59.813Z,36.78
2023-04-10T12:12:59.787Z,36.68
2023-04-10T12:13:59.771Z,36.46
2023-04-10T12:14:59.742Z,36.28
2023-04-10T12:15:59.794Z,36.80
2023-04-10T12:16:59.755Z,36.60
2023-04-10T12:17:59.771Z,36.92
2023-04-10T12:18:59.724Z,37.65
2023-04-10T12:19:59.724Z,37.74
2023-04-10T12:20:59.668Z,38.54
2023-04-10T12:21:59.713Z,38.64
2023-04-10T12:22:59.694Z,38.04
2023-04-10T12:23:59.650Z,38.44
2023-04-10T12:24:59.642Z,38.54
2023-04-10T12:25:59.688Z,37.62
2023-04-10T12:27:00.381Z,37.62
2023-04-10T12:27:59.624Z,36.92
2023-04-10T12:28:59.619Z,36.60
2023-04-10T12:29:59.602Z,36.70
2023-04-10T12:30:59.581Z,37.92
2023-04-10T12:31:59.570Z,37.63
2023-04-10T12:32:59.629Z,38.94
2023-04-10T12:33:59.564Z,38.56
2023-04-10T12:34:59.536Z,38.66
2023-04-10T12:35:59.579Z,38.66
2023-04-10T12:36:59.538Z,38.18
2023-04-10T12:37:59.545Z,38.68
2023-04-10T12:38:59.501Z,39.38
2023-04-10T12:39:59.494Z,39.28
2023-04-10T12:40:59.518Z,39.06
2023-04-10T12:41:59.450Z,39.16
2023-04-10T12:42:59.488Z,39.76
2023-04-10T12:43:59.460Z,38.44
2023-04-10T12:44:59.455Z,38.54
2023-04-10T12:45:59.443Z,38.32
2023-04-10T12:46:59.468Z,38.12
2023-04-10T12:47:59.471Z,38.62
2023-04-10T12:48:59.385Z,39.25
2023-04-10T12:49:59.423Z,39.54
2023-04-10T12:50:59.377Z,39.54
2023-04-10T12:51:59.372Z,39.84
2023-04-10T12:52:59.387Z,40.55